Zhong Shan Men — 3FLE6 — position and weather

sailwx.info

Track history (hours):
 
Tides and Currents Weather Stations Pressure Air Temp Water Temp Dewpoint Dewpoint Depression Visibility Wind Speed Wind Dir Waves Ship Positions

Zhong Shan Men

Last reported at 2018-Feb-20 22:09 UTC. Time now 2018-Feb-24 06:35 UTC.
Position N 31°01' E 122°26'.

Length 189 m; draft 6.2 m.

Type: Cargo ship. MMSI: 351339000.

Date/timePositionNaut miles runAvg speedWind from/ knotsBaromVisibWave heightAir tempDewpointWater temp
2018-Feb-20 22:09N 31°01' E 122°26'313.3
2018-Feb-20 21:55N 31°01' E 122°22'613.6
2018-Feb-20 21:30N 31°02' E 122°16'612.8
2018-Feb-20 21:00N 31°03' E 122°08'510.3
2018-Feb-20 20:28N 31°05' E 122°02'5 9.1
2018-Feb-20 19:59N 31°07' E 121°57'511.0
2018-Feb-20 19:30N 31°09' E 121°52'610.3
2018-Feb-20 18:57N 31°14' E 121°48'8111.2
2018-Feb-20 11:40N 32°02' E 120°30'212.1
2018-Feb-20 11:28N 32°02' E 120°28'  
2018-Feb-14 22:01N 31°07' E 122°43'0 0.1
2018-Feb-14 21:40N 31°07' E 122°43'0 0.2
2018-Feb-14 21:19N 31°07' E 122°43'0 0.0
2018-Feb-14 20:58N 31°07' E 122°43'0 0.1
2018-Feb-14 20:13N 31°07' E 122°43'0 0.0
2018-Feb-14 19:49N 31°07' E 122°43'0 0.2
2018-Feb-14 18:59N 31°07' E 122°43'12 8.8
2018-Feb-14 17:40N 31°05' E 122°56'1110.3
2018-Feb-14 16:34N 30°54' E 122°59'113.2
2018-Feb-14 16:30N 30°53' E 122°59'713.5
2018-Feb-14 16:00N 30°46' E 122°58'2713.4
2018-Feb-14 13:57N 30°20' E 123°06'  
2018-Feb-11 12:42N 24°56' E 122°12'1410.7
2018-Feb-11 11:23N 24°43' E 122°07'510.8
2018-Feb-11 10:55N 24°38' E 122°06'1910.6
2018-Feb-11 09:09N 24°21' E 121°59'2 9.6
2018-Feb-11 08:56N 24°19' E 121°59'  
Track history (hours):
 
Tides and Currents Weather Stations Pressure Air Temp Water Temp Dewpoint Dewpoint Depression Visibility Wind Speed Wind Dir Waves Ship Positions

Zhong Shan Men

Last reported at 2018-Feb-20 22:09 UTC. Time now 2018-Feb-24 06:35 UTC.
Position N 31°01' E 122°26'.

Length 189 m; draft 6.2 m.

Type: Cargo ship. MMSI: 351339000.

Date/timePositionNaut miles runAvg speedWind from/ knotsBaromVisibWave heightAir tempDewpointWater temp
2018-Feb-20 22:09N 31°01' E 122°26'313.3
2018-Feb-20 21:55N 31°01' E 122°22'613.6
2018-Feb-20 21:30N 31°02' E 122°16'612.8
2018-Feb-20 21:00N 31°03' E 122°08'510.3
2018-Feb-20 20:28N 31°05' E 122°02'5 9.1
2018-Feb-20 19:59N 31°07' E 121°57'511.0
2018-Feb-20 19:30N 31°09' E 121°52'610.3
2018-Feb-20 18:57N 31°14' E 121°48'8111.2
2018-Feb-20 11:40N 32°02' E 120°30'212.1
2018-Feb-20 11:28N 32°02' E 120°28'  
2018-Feb-14 22:01N 31°07' E 122°43'0 0.1
2018-Feb-14 21:40N 31°07' E 122°43'0 0.2
2018-Feb-14 21:19N 31°07' E 122°43'0 0.0
2018-Feb-14 20:58N 31°07' E 122°43'0 0.1
2018-Feb-14 20:13N 31°07' E 122°43'0 0.0
2018-Feb-14 19:49N 31°07' E 122°43'0 0.2
2018-Feb-14 18:59N 31°07' E 122°43'12 8.8
2018-Feb-14 17:40N 31°05' E 122°56'1110.3
2018-Feb-14 16:34N 30°54' E 122°59'113.2
2018-Feb-14 16:30N 30°53' E 122°59'713.5
2018-Feb-14 16:00N 30°46' E 122°58'2713.4
2018-Feb-14 13:57N 30°20' E 123°06'  
2018-Feb-11 12:42N 24°56' E 122°12'1410.7
2018-Feb-11 11:23N 24°43' E 122°07'510.8
2018-Feb-11 10:55N 24°38' E 122°06'1910.6
2018-Feb-11 09:09N 24°21' E 121°59'2 9.6
2018-Feb-11 08:56N 24°19' E 121°59'  

Dump ship's entire track history